Time;durP1;ratioP1;P1;durP2;ratioP2;P2;SDS_P1;SDS_P2;PMS_P1;PMS_P2;Temp;Humidity;BMP_temperature;BMP_pressure;BME280_temperature;BME280_humidity;BME280_pressure;Samples;Min_cycle;Max_cycle;Signal;HPM_P1;HPM_P2
2022/08/11 00:00:11;;;;;;;1.17;0.50;;;21.20;61.70;;;;;;5094161;28;20035;-84
2022/08/11 00:02:45;;;;;;;3.55;0.70;;;21.20;61.60;;;;;;5092226;28;20114;-84
2022/08/11 00:05:14;;;;;;;0.90;0.43;;;21.10;61.90;;;;;;5093177;28;20089;-83
2022/08/11 00:07:53;;;;;;;3.50;0.50;;;21.10;62.10;;;;;;5092630;28;20063;-85
2022/08/11 00:10:24;;;;;;;4.28;0.70;;;21.00;62.30;;;;;;5093273;28;20031;-83
2022/08/11 00:12:57;;;;;;;3.15;0.70;;;20.90;62.60;;;;;;5092301;28;20081;-82
2022/08/11 00:15:40;;;;;;;6.13;0.60;;;21.00;62.60;;;;;;5093150;28;20107;-85
2022/08/11 00:18:08;;;;;;;5.00;0.50;;;21.00;62.40;;;;;;5091080;28;20027;-84
2022/08/11 00:20:38;;;;;;;2.83;0.90;;;20.90;62.60;;;;;;5092090;28;20046;-83
2022/08/11 00:23:15;;;;;;;1.10;0.50;;;20.90;62.90;;;;;;5111201;28;20049;-83
2022/08/11 00:25:51;;;;;;;2.42;0.80;;;20.80;62.80;;;;;;5091978;28;20132;-81
2022/08/11 00:28:27;;;;;;;1.98;0.52;;;20.80;63.00;;;;;;5110201;28;20023;-84
2022/08/11 00:30:55;;;;;;;1.30;0.55;;;20.80;63.00;;;;;;5091977;28;20016;-84
2022/08/11 00:33:24;;;;;;;1.92;0.60;;;20.80;63.20;;;;;;5109654;28;20024;-83
2022/08/11 00:35:51;;;;;;;0.65;0.40;;;20.80;63.40;;;;;;5110082;28;20681;-84
2022/08/11 00:38:21;;;;;;;2.58;0.57;;;20.80;63.60;;;;;;5092139;28;20030;-84
2022/08/11 00:41:13;;;;;;;2.45;0.57;;;20.70;63.80;;;;;;5110087;28;20145;-83
2022/08/11 00:43:48;;;;;;;5.90;0.60;;;20.70;64.10;;;;;;5090952;28;20023;-82
2022/08/11 00:46:46;;;;;;;4.53;0.60;;;20.70;64.10;;;;;;5090588;28;20027;-82
2022/08/11 00:49:52;;;;;;;4.40;0.50;;;20.80;64.20;;;;;;5091161;28;20579;-83
2022/08/11 00:52:36;;;;;;;7.22;0.43;;;20.80;64.10;;;;;;5091322;28;20037;-82
2022/08/11 00:55:38;;;;;;;3.33;0.50;;;20.80;64.20;;;;;;5091251;28;20027;-83
2022/08/11 00:58:26;;;;;;;4.00;0.55;;;20.80;64.40;;;;;;5090894;28;20028;-83
2022/08/11 01:01:16;;;;;;;3.95;0.70;;;20.80;64.60;;;;;;5093417;28;20031;-87
2022/08/11 01:04:08;;;;;;;3.55;0.60;;;20.80;64.80;;;;;;5089183;28;20020;-86
2022/08/11 01:06:48;;;;;;;2.95;0.50;;;20.80;65.10;;;;;;5074109;28;20050;-87
2022/08/11 01:09:32;;;;;;;1.45;0.65;;;20.80;65.40;;;;;;5082775;28;20027;-86
2022/08/11 01:12:17;;;;;;;2.17;0.70;;;20.70;65.70;;;;;;5093786;28;20031;-86
2022/08/11 01:15:05;;;;;;;2.85;0.60;;;20.70;65.90;;;;;;5101610;28;20028;-85
2022/08/11 01:17:53;;;;;;;1.42;0.50;;;20.60;66.10;;;;;;5103718;28;20124;-86
2022/08/11 01:20:31;;;;;;;3.05;0.52;;;20.60;66.30;;;;;;5088636;28;20050;-83
2022/08/11 01:23:35;;;;;;;2.60;0.73;;;20.60;66.40;;;;;;5091861;28;20023;-83
2022/08/11 01:26:29;;;;;;;7.13;0.50;;;20.50;66.90;;;;;;5088704;28;20542;-84
2022/08/11 01:29:52;;;;;;;1.63;0.57;;;20.50;67.20;;;;;;5071382;28;20024;-84
2022/08/11 01:32:37;;;;;;;2.55;0.60;;;20.50;67.10;;;;;;5070843;28;20496;-83
2022/08/11 01:35:28;;;;;;;2.65;0.50;;;20.50;67.00;;;;;;5070831;28;20024;-84
2022/08/11 01:38:18;;;;;;;2.58;0.60;;;20.60;66.80;;;;;;5070728;28;20473;-83
2022/08/11 01:40:45;;;;;;;2.45;0.50;;;20.60;66.90;;;;;;5089176;28;20039;-85
2022/08/11 01:46:30;;;;;;;1.98;0.73;;;20.50;67.20;;;;;;5109667;28;20035;-85
2022/08/11 01:49:35;;;;;;;3.45;0.50;;;20.50;67.40;;;;;;5089850;28;20066;-82
2022/08/11 01:52:14;;;;;;;6.38;0.63;;;20.50;67.40;;;;;;5089811;28;20035;-84
2022/08/11 01:55:07;;;;;;;1.77;0.50;;;20.50;67.30;;;;;;5108680;28;20111;-85
2022/08/11 01:57:41;;;;;;;6.68;0.70;;;20.50;67.50;;;;;;5090736;28;20020;-83
2022/08/11 02:00:17;;;;;;;2.28;0.70;;;20.50;67.70;;;;;;5108436;28;20040;-85
2022/08/11 02:02:58;;;;;;;;;;;20.50;67.60;;;;;;5090347;28;20027;-83
2022/08/11 02:05:46;;;;;;;3.60;0.73;;;20.50;67.80;;;;;;5089640;28;19954;-84
2022/08/11 02:08:43;;;;;;;4.30;0.60;;;20.40;67.90;;;;;;5108001;28;20078;-82
2022/08/11 02:11:30;;;;;;;1.80;0.65;;;20.40;67.80;;;;;;5109150;28;20082;-83
2022/08/11 02:14:21;;;;;;;2.20;0.68;;;20.50;67.40;;;;;;5108638;28;20031;-84
2022/08/11 02:16:54;;;;;;;2.05;0.63;;;20.50;67.50;;;;;;5090246;28;20032;-84
2022/08/11 02:25:50;;;;;;;5.93;0.75;;;20.40;67.70;;;;;;5109234;28;20842;-84
2022/08/11 02:28:27;;;;;;;3.10;0.50;;;20.30;67.70;;;;;;5109422;28;20027;-85
2022/08/11 02:33:53;;;;;;;1.15;0.43;;;20.50;67.10;;;;;;5113275;28;20054;-84
2022/08/11 02:36:35;;;;;;;5.97;0.50;;;20.40;67.00;;;;;;5112679;28;20038;-84
2022/08/11 02:39:09;;;;;;;8.07;0.50;;;20.40;67.10;;;;;;5095357;28;20027;-85
2022/08/11 02:44:48;;;;;;;4.13;0.93;;;20.20;67.70;;;;;;5111658;28;20073;-84
2022/08/11 02:47:37;;;;;;;2.58;0.60;;;20.20;67.80;;;;;;5093011;28;20028;-85
2022/08/11 02:50:27;;;;;;;1.25;0.60;;;20.20;67.90;;;;;;5094436;28;20023;-85
2022/08/11 02:53:17;;;;;;;3.13;0.70;;;20.20;67.70;;;;;;5112862;28;20047;-84
2022/08/11 02:55:55;;;;;;;0.75;0.40;;;20.20;67.00;;;;;;5094548;28;20450;-86
2022/08/11 03:01:52;;;;;;;4.30;0.63;;;20.20;66.20;;;;;;5112892;28;20404;-83
2022/08/11 03:04:54;;;;;;;8.75;0.55;;;20.20;66.30;;;;;;5094174;28;20026;-85
2022/08/11 03:07:20;;;;;;;5.25;0.65;;;20.20;66.30;;;;;;5094531;28;20507;-84
2022/08/11 03:09:57;;;;;;;1.35;0.50;;;20.20;66.40;;;;;;5094069;28;20135;-85
2022/08/11 03:18:50;;;;;;;8.57;0.90;;;20.30;66.50;;;;;;5112810;28;20561;-85
2022/08/11 03:21:31;;;;;;;0.88;0.55;;;20.20;66.50;;;;;;5093697;28;20054;-84
2022/08/11 03:24:10;;;;;;;4.53;0.70;;;20.20;66.60;;;;;;5093692;28;20047;-85
2022/08/11 03:26:58;;;;;;;2.95;0.50;;;20.20;66.50;;;;;;5093727;28;20367;-84
2022/08/11 03:29:46;;;;;;;1.98;0.70;;;20.20;66.50;;;;;;5095973;28;20074;-84
2022/08/11 03:32:29;;;;;;;3.28;0.57;;;20.20;66.90;;;;;;5093543;28;20388;-85
2022/08/11 03:35:00;;;;;;;1.02;0.40;;;20.10;67.00;;;;;;5092886;28;20034;-85
2022/08/11 03:37:55;;;;;;;1.95;0.55;;;20.20;67.20;;;;;;5093639;28;20039;-84
2022/08/11 03:43:46;;;;;;;1.77;0.60;;;20.20;67.30;;;;;;5111812;28;20039;-85
2022/08/11 03:46:15;;;;;;;1.98;0.60;;;20.10;67.50;;;;;;5092811;28;20084;-83
2022/08/11 03:49:02;;;;;;;6.90;0.70;;;20.10;67.60;;;;;;5093253;28;20518;-84
2022/08/11 03:51:53;;;;;;;3.60;0.60;;;20.20;67.60;;;;;;5093184;28;20024;-84
2022/08/11 03:54:39;;;;;;;5.47;0.70;;;20.20;67.60;;;;;;5111388;28;20103;-85
2022/08/11 03:57:42;;;;;;;2.20;0.55;;;20.20;67.50;;;;;;5093585;28;20111;-84
2022/08/11 04:00:19;;;;;;;2.75;0.50;;;20.20;67.40;;;;;;5110967;28;20035;-83
2022/08/11 04:03:00;;;;;;;4.45;0.63;;;20.30;67.40;;;;;;5093246;28;20016;-84
2022/08/11 04:05:25;;;;;;;1.35;0.60;;;20.20;67.50;;;;;;5092849;28;20023;-84
2022/08/11 04:07:51;;;;;;;4.47;0.90;;;20.20;67.30;;;;;;5093086;28;20039;-84
2022/08/11 04:10:35;;;;;;;7.35;0.40;;;20.30;67.40;;;;;;5110936;28;20023;-83
2022/08/11 04:13:57;;;;;;;1.00;0.50;;;20.40;66.90;;;;;;5092747;28;20157;-85
2022/08/11 04:16:52;;;;;;;2.15;0.50;;;20.40;67.00;;;;;;5066555;28;20113;-84
2022/08/11 04:19:49;;;;;;;0.80;0.50;;;20.60;66.70;;;;;;5055896;28;20661;-84
2022/08/11 04:22:29;;;;;;;3.78;0.70;;;20.70;66.30;;;;;;5110426;28;20031;-84
2022/08/11 04:25:32;;;;;;;3.22;0.70;;;20.80;65.90;;;;;;5091845;28;20438;-85
2022/08/11 04:28:25;;;;;;;1.60;0.57;;;20.80;65.70;;;;;;5092554;28;20030;-85
2022/08/11 04:31:29;;;;;;;5.15;0.85;;;20.80;65.60;;;;;;5091801;28;20035;-83
2022/08/11 04:34:16;;;;;;;4.72;0.75;;;20.80;65.60;;;;;;5098681;28;20030;-84
2022/08/11 04:40:16;;;;;;;4.53;0.60;;;20.80;65.50;;;;;;5067124;28;20047;-84
2022/08/11 04:43:19;;;;;;;11.23;0.63;;;21.00;65.10;;;;;;5091588;28;20027;-86
2022/08/11 04:46:27;;;;;;;5.30;0.70;;;21.00;65.00;;;;;;5091393;28;20453;-85
2022/08/11 05:01:39;;;;;;;2.80;0.80;;;21.30;64.10;;;;;;5109601;28;19910;-85
2022/08/11 05:07:54;;;;;;;2.08;0.52;;;21.70;63.10;;;;;;5089673;28;20547;-83
2022/08/11 05:10:46;;;;;;;3.83;0.80;;;22.00;62.20;;;;;;5105653;28;20015;-83
2022/08/11 05:36:34;;;;;;;4.80;0.80;;;23.20;58.70;;;;;;5109826;28;20088;-82
2022/08/11 05:58:39;;;;;;;2.72;0.60;;;25.20;51.70;;;;;;5106977;28;20066;-82
2022/08/11 06:01:06;;;;;;;2.78;0.82;;;25.20;51.20;;;;;;5088775;28;20032;-83
2022/08/11 06:04:12;;;;;;;1.58;0.68;;;25.30;51.60;;;;;;5108093;28;20024;-83
2022/08/11 06:06:25;;;;;;;1.75;0.70;;;25.70;50.60;;;;;;5107253;28;20110;-82
2022/08/11 06:08:55;;;;;;;2.42;0.80;;;26.30;49.80;;;;;;5089124;28;20657;-81
2022/08/11 06:11:23;;;;;;;3.42;0.70;;;26.70;48.50;;;;;;5089621;28;20019;-83
2022/08/11 06:13:51;;;;;;;1.50;0.60;;;27.30;47.70;;;;;;5089373;28;20023;-82
2022/08/11 06:16:25;;;;;;;7.55;0.90;;;27.90;45.80;;;;;;5089548;28;20077;-83
2022/08/11 06:18:51;;;;;;;1.42;0.80;;;28.30;44.90;;;;;;5089957;28;20408;-83
2022/08/11 06:21:17;;;;;;;2.30;0.60;;;28.70;43.50;;;;;;5089379;28;20055;-83
2022/08/11 06:23:44;;;;;;;4.30;0.60;;;29.20;42.70;;;;;;5089335;28;20051;-84
2022/08/11 06:26:11;;;;;;;8.70;0.63;;;29.30;42.10;;;;;;5089333;28;20517;-83
2022/08/11 06:28:39;;;;;;;1.85;0.65;;;29.50;41.60;;;;;;5107027;28;20047;-82
2022/08/11 06:31:18;;;;;;;1.23;0.65;;;30.00;40.20;;;;;;5107295;28;20027;-83
2022/08/11 06:33:49;;;;;;;2.00;0.55;;;29.80;40.00;;;;;;5089203;28;20460;-83
2022/08/11 06:36:24;;;;;;;1.73;0.60;;;29.80;40.00;;;;;;5089829;28;20030;-84
2022/08/11 06:39:08;;;;;;;0.80;0.50;;;29.80;40.20;;;;;;5089069;28;20544;-84
2022/08/11 06:41:52;;;;;;;2.15;0.70;;;30.50;38.70;;;;;;5107361;28;20044;-83
2022/08/11 06:44:31;;;;;;;1.63;0.60;;;30.60;38.50;;;;;;5088925;28;20446;-83
2022/08/11 06:47:06;;;;;;;5.60;0.60;;;30.20;38.20;;;;;;5088380;28;20023;-82
2022/08/11 06:52:32;;;;;;;2.03;0.70;;;30.20;38.90;;;;;;5107615;28;20050;-83
2022/08/11 06:55:05;;;;;;;2.45;0.60;;;30.10;39.00;;;;;;5088931;28;20093;-83
2022/08/11 07:00:27;;;;;;;1.55;0.60;;;29.70;39.70;;;;;;5107214;28;20122;-83
2022/08/11 07:03:02;;;;;;;1.02;0.50;;;29.50;39.90;;;;;;5089159;28;20024;-83
2022/08/11 07:05:52;;;;;;;1.30;0.70;;;29.80;39.50;;;;;;5107202;28;20033;-82
2022/08/11 07:17:33;;;;;;;6.93;0.70;;;29.70;39.50;;;;;;5109268;28;20089;-83
2022/08/11 07:28:54;;;;;;;2.65;0.50;;;30.00;39.00;;;;;;5111210;28;20039;-84
2022/08/11 07:31:29;;;;;;;1.58;0.73;;;29.90;39.80;;;;;;5110337;28;20023;-80
2022/08/11 07:34:24;;;;;;;1.38;0.52;;;30.20;39.80;;;;;;5092229;28;20345;-81
2022/08/11 07:36:55;;;;;;;2.83;0.50;;;30.40;39.10;;;;;;5099469;28;20066;-81
2022/08/11 07:39:26;;;;;;;2.20;0.60;;;30.20;39.40;;;;;;5092594;28;20509;-81
2022/08/11 07:41:55;;;;;;;2.25;0.70;;;30.20;39.60;;;;;;5092403;28;20072;-80
2022/08/11 07:44:24;;;;;;;1.45;0.65;;;30.20;39.60;;;;;;5110217;28;20058;-80
2022/08/11 07:52:31;;;;;;;1.70;0.75;;;30.50;37.70;;;;;;5110718;28;20039;-80
2022/08/11 07:55:00;;;;;;;1.67;0.40;;;30.70;37.30;;;;;;5110723;28;20032;-80
2022/08/11 08:19:28;;;;;;;0.85;0.50;;;31.50;35.70;;;;;;5109190;28;20121;-80
2022/08/11 08:21:54;;;;;;;0.90;0.50;;;31.50;36.00;;;;;;5091008;28;20114;-80
2022/08/11 08:24:20;;;;;;;4.65;0.60;;;31.50;35.80;;;;;;5109864;28;20511;-81
2022/08/11 08:27:00;;;;;;;1.20;0.50;;;31.50;35.60;;;;;;5090725;28;20032;-81
2022/08/11 08:32:20;;;;;;;1.20;0.43;;;31.40;35.00;;;;;;5110232;28;20081;-81
2022/08/11 08:34:51;;;;;;;1.30;0.60;;;31.30;35.30;;;;;;5090374;28;20028;-84
2022/08/11 08:37:19;;;;;;;8.23;1.05;;;31.30;36.10;;;;;;5090748;28;20492;-84
2022/08/11 08:39:47;;;;;;;2.63;0.63;;;31.80;35.10;;;;;;5090938;28;20101;-83
2022/08/11 08:42:20;;;;;;;1.85;0.50;;;31.80;35.40;;;;;;5090654;28;20027;-85
2022/08/11 08:45:02;;;;;;;1.23;0.50;;;32.10;35.40;;;;;;5090826;28;20051;-82
2022/08/11 08:47:30;;;;;;;0.95;0.47;;;32.20;34.80;;;;;;5108565;28;20043;-82
2022/08/11 08:50:04;;;;;;;2.35;0.60;;;32.60;34.20;;;;;;5090484;28;20119;-83
2022/08/11 08:52:34;;;;;;;1.25;0.68;;;32.00;34.80;;;;;;5090585;28;20032;-83
2022/08/11 08:55:04;;;;;;;2.05;0.50;;;31.70;35.40;;;;;;5108405;28;20098;-83
2022/08/11 08:57:33;;;;;;;1.58;0.60;;;31.90;35.80;;;;;;5108041;28;20031;-83
2022/08/11 09:00:00;;;;;;;1.63;0.55;;;32.20;35.20;;;;;;5089414;28;20028;-83
2022/08/11 09:02:27;;;;;;;3.88;0.45;;;32.10;34.70;;;;;;5090437;28;20611;-83
2022/08/11 09:04:53;;;;;;;2.97;0.50;;;32.30;34.40;;;;;;5089992;28;20633;-83
2022/08/11 09:07:22;;;;;;;1.98;0.70;;;32.00;35.00;;;;;;5090091;28;20399;-84
2022/08/11 09:09:51;;;;;;;2.20;0.70;;;32.30;34.80;;;;;;5089831;28;20031;-84
2022/08/11 09:12:19;;;;;;;1.15;0.40;;;32.10;34.30;;;;;;5089152;28;20023;-83
2022/08/11 09:15:22;;;;;;;1.08;0.50;;;32.30;34.40;;;;;;5107873;28;20525;-82
2022/08/11 09:17:45;;;;;;;1.60;0.63;;;32.50;34.20;;;;;;5105295;28;20032;-82
2022/08/11 09:20:20;;;;;;;2.00;0.60;;;32.20;34.40;;;;;;5089663;28;20044;-82
2022/08/11 09:28:20;;;;;;;5.00;0.60;;;32.30;34.20;;;;;;5107962;28;20070;-80
2022/08/11 09:30:52;;;;;;;2.13;0.40;;;32.30;34.40;;;;;;5089821;28;20031;-81
2022/08/11 09:33:18;;;;;;;1.42;0.57;;;32.30;34.50;;;;;;5089553;28;20028;-81
2022/08/11 09:35:47;;;;;;;3.42;0.60;;;32.60;33.90;;;;;;5109074;28;20028;-80
2022/08/11 09:41:04;;;;;;;2.92;0.50;;;32.70;33.50;;;;;;5107261;28;20119;-81
2022/08/11 09:46:21;;;;;;;3.03;0.50;;;32.60;33.70;;;;;;5108181;28;20039;-80
2022/08/11 09:48:47;;;;;;;1.23;0.45;;;32.70;33.00;;;;;;5089364;28;20028;-82
2022/08/11 09:51:14;;;;;;;1.10;0.50;;;32.80;32.10;;;;;;5089684;28;20077;-81
2022/08/11 09:53:42;;;;;;;3.20;0.40;;;32.60;33.10;;;;;;5089424;28;20107;-81
2022/08/11 09:59:01;;;;;;;1.75;0.40;;;32.70;33.20;;;;;;5107382;28;20530;-82
2022/08/11 10:01:39;;;;;;;2.75;0.52;;;33.00;32.30;;;;;;5089404;28;20130;-82
2022/08/11 10:04:10;;;;;;;2.35;0.30;;;32.50;32.80;;;;;;5089651;28;20115;-82
2022/08/11 10:09:24;;;;;;;2.15;0.60;;;31.90;33.40;;;;;;5107293;28;20100;-81
2022/08/11 10:11:55;;;;;;;3.42;0.50;;;31.50;33.80;;;;;;5089362;28;20024;-82
2022/08/11 10:17:08;;;;;;;0.60;0.50;;;31.40;34.40;;;;;;5107855;28;20403;-83
2022/08/11 10:19:37;;;;;;;2.55;0.40;;;31.20;34.20;;;;;;5107451;28;20044;-83
2022/08/11 10:27:58;;;;;;;1.23;0.50;;;30.60;35.30;;;;;;5044191;28;19909;-83
2022/08/11 10:36:00;;;;;;;2.78;0.40;;;29.00;36.70;;;;;;5108053;28;20062;-82
2022/08/11 10:38:28;;;;;;;1.70;0.40;;;28.50;37.40;;;;;;5088935;28;20028;-83
2022/08/11 10:43:40;;;;;;;1.05;0.57;;;27.60;38.80;;;;;;5107848;28;20799;-84
2022/08/11 10:48:56;;;;;;;1.30;0.70;;;27.10;39.40;;;;;;5108538;28;20092;-83
2022/08/11 10:59:42;;;;;;;2.15;0.50;;;27.80;37.70;;;;;;5112257;28;20027;-83
2022/08/11 11:02:15;;;;;;;0.47;0.40;;;27.80;38.30;;;;;;5111232;28;20030;-84
2022/08/11 11:04:58;;;;;;;1.92;0.40;;;28.00;38.10;;;;;;5112270;28;20043;-83
2022/08/11 11:07:41;;;;;;;1.55;0.60;;;28.20;37.60;;;;;;5093148;28;20238;-82
2022/08/11 11:10:10;;;;;;;0.70;0.32;;;28.50;38.20;;;;;;5092522;28;20024;-83
2022/08/11 11:18:24;;;;;;;0.80;0.40;;;28.80;38.50;;;;;;5111126;28;20240;-84
2022/08/11 11:21:03;;;;;;;1.17;0.50;;;28.70;37.70;;;;;;5092902;28;20484;-83
2022/08/11 11:23:34;;;;;;;1.23;0.60;;;28.20;38.90;;;;;;5092756;28;20472;-84
2022/08/11 11:26:37;;;;;;;1.35;0.50;;;27.90;38.50;;;;;;5092761;28;20019;-83
2022/08/11 11:29:11;;;;;;;4.65;0.57;;;27.50;39.40;;;;;;5092816;28;20141;-85
2022/08/11 11:31:58;;;;;;;1.20;0.45;;;27.40;39.40;;;;;;5093304;28;20019;-83
2022/08/11 11:34:30;;;;;;;;;;;27.70;38.90;;;;;;5093367;28;20047;-83
2022/08/11 11:36:57;;;;;;;2.60;0.45;;;27.90;38.60;;;;;;5092527;28;19908;-84
2022/08/11 11:39:30;;;;;;;1.13;0.60;;;28.00;38.90;;;;;;5092872;28;20027;-84
2022/08/11 11:42:00;;;;;;;0.98;0.57;;;28.10;39.40;;;;;;5092600;28;20388;-84
2022/08/11 11:44:27;;;;;;;2.20;0.40;;;28.50;37.50;;;;;;5110544;28;20028;-84
2022/08/11 11:46:54;;;;;;;1.52;0.50;;;28.60;37.60;;;;;;5094464;28;20019;-84
2022/08/11 11:49:23;;;;;;;0.70;0.40;;;28.50;37.60;;;;;;5110953;28;20031;-83
2022/08/11 11:51:51;;;;;;;1.08;0.70;;;28.60;37.60;;;;;;5092582;28;20016;-84
2022/08/11 11:54:23;;;;;;;4.40;0.40;;;28.50;37.10;;;;;;5109405;28;20032;-84
2022/08/11 11:56:52;;;;;;;5.47;0.40;;;28.20;37.00;;;;;;5092711;28;20050;-84
2022/08/11 12:02:05;;;;;;;1.60;0.47;;;28.00;38.10;;;;;;5109799;28;20039;-84
2022/08/11 12:04:31;;;;;;;0.80;0.38;;;28.10;38.00;;;;;;5092800;28;20070;-83
2022/08/11 12:08:09;;;;;;;1.85;0.55;;;28.20;38.10;;;;;;5092163;28;20028;-83
2022/08/11 12:09:45;;;;;;;2.47;0.50;;;28.40;38.00;;;;;;5109710;28;20176;-84
2022/08/11 12:14:56;;;;;;;2.50;0.60;;;28.40;37.70;;;;;;5110865;28;20034;-84
2022/08/11 12:17:22;;;;;;;4.03;0.40;;;28.40;37.40;;;;;;5092459;28;20633;-82
2022/08/11 12:19:49;;;;;;;3.05;0.40;;;28.50;38.00;;;;;;5091825;28;20420;-83
2022/08/11 12:27:45;;;;;;;1.25;0.30;;;28.30;36.80;;;;;;5109722;28;20136;-83
2022/08/11 12:30:12;;;;;;;2.17;0.43;;;28.10;35.10;;;;;;5091975;28;20488;-84
2022/08/11 12:32:41;;;;;;;2.13;0.60;;;27.90;36.10;;;;;;5109301;28;20023;-84
2022/08/11 12:35:08;;;;;;;0.85;0.40;;;27.80;36.30;;;;;;5091005;28;20057;-83
2022/08/11 12:37:39;;;;;;;2.28;0.40;;;27.90;37.20;;;;;;5109706;28;20016;-83
2022/08/11 12:45:46;;;;;;;4.80;1.85;;;28.00;37.50;;;;;;5109162;28;20049;-84
2022/08/11 12:54:18;;;;;;;2.05;0.50;;;27.90;38.30;;;;;;5109024;28;20514;-80
2022/08/11 13:05:13;;;;;;;0.55;0.40;;;27.70;36.60;;;;;;5109816;28;20077;-81
2022/08/11 13:07:42;;;;;;;1.20;0.40;;;27.60;37.00;;;;;;5091324;28;20059;-81
2022/08/11 13:10:11;;;;;;;0.65;0.40;;;27.50;36.90;;;;;;5092327;28;20028;-82
2022/08/11 13:12:46;;;;;;;1.95;0.40;;;27.60;37.40;;;;;;5091178;28;20042;-82
2022/08/11 13:15:20;;;;;;;2.13;0.40;;;27.60;36.80;;;;;;5091607;27;20043;-82
2022/08/11 13:17:48;;;;;;;1.70;0.50;;;27.80;36.80;;;;;;5120054;27;20483;-83
2022/08/11 13:20:20;;;;;;;1.27;0.40;;;28.00;36.80;;;;;;5091174;28;20507;-83
2022/08/11 13:22:54;;;;;;;1.65;0.60;;;28.10;37.00;;;;;;5091705;28;20395;-81
2022/08/11 13:25:26;;;;;;;2.10;0.40;;;28.00;36.70;;;;;;5087166;28;20081;-83
2022/08/11 13:27:55;;;;;;;2.38;0.68;;;27.70;37.20;;;;;;5087602;28;20050;-83
2022/08/11 13:33:10;;;;;;;4.43;0.55;;;27.60;37.40;;;;;;5109134;28;20511;-83
2022/08/11 13:35:37;;;;;;;1.25;0.65;;;27.60;37.60;;;;;;5090445;28;20035;-82
2022/08/11 13:38:04;;;;;;;3.13;0.40;;;27.80;38.00;;;;;;5090695;28;20030;-83
2022/08/11 13:40:31;;;;;;;0.40;0.38;;;27.80;38.10;;;;;;5090721;28;20046;-83
2022/08/11 13:42:57;;;;;;;2.88;0.40;;;27.80;37.90;;;;;;5090957;28;20058;-83
2022/08/11 13:45:25;;;;;;;0.47;0.35;;;27.70;37.90;;;;;;5109248;28;20045;-84
2022/08/11 13:47:58;;;;;;;3.30;0.77;;;27.60;37.70;;;;;;5091089;28;20491;-82
2022/08/11 13:53:17;;;;;;;0.65;0.30;;;27.50;36.60;;;;;;5077765;28;20042;-83
2022/08/11 13:55:43;;;;;;;0.73;0.32;;;27.50;37.40;;;;;;5090939;28;20032;-83
2022/08/11 13:58:11;;;;;;;0.90;0.25;;;27.50;37.90;;;;;;5090004;28;20525;-82
2022/08/11 14:00:38;;;;;;;1.83;0.40;;;27.60;38.00;;;;;;5089795;28;20100;-83
2022/08/11 14:03:08;;;;;;;1.08;0.40;;;27.60;38.40;;;;;;5109451;28;20484;-82
2022/08/11 14:05:39;;;;;;;0.85;0.38;;;27.60;38.50;;;;;;5090061;28;20028;-81
2022/08/11 14:08:16;;;;;;;3.00;0.40;;;27.50;38.60;;;;;;5107243;28;20440;-83
2022/08/11 14:10:43;;;;;;;1.70;0.30;;;27.40;38.40;;;;;;5090957;28;20130;-83
2022/08/11 14:16:06;;;;;;;3.70;0.50;;;27.30;38.60;;;;;;5104050;28;20514;-83
2022/08/11 14:18:33;;;;;;;4.80;0.50;;;27.20;38.80;;;;;;5107989;28;20411;-82
2022/08/11 14:23:58;;;;;;;1.95;0.50;;;27.20;39.40;;;;;;5108859;28;20236;-83
2022/08/11 14:26:25;;;;;;;0.52;0.30;;;27.10;39.80;;;;;;5112027;28;20019;-84
2022/08/11 14:29:03;;;;;;;1.67;0.50;;;26.90;40.10;;;;;;5115298;28;20032;-84
2022/08/11 14:31:32;;;;;;;1.52;0.60;;;26.80;40.70;;;;;;5114983;28;20027;-85
2022/08/11 14:34:01;;;;;;;0.57;0.40;;;26.90;40.10;;;;;;5115001;28;20125;-84
2022/08/11 14:36:36;;;;;;;1.70;0.38;;;27.00;39.60;;;;;;5097526;28;20031;-82
2022/08/11 14:39:11;;;;;;;1.73;0.50;;;27.20;38.50;;;;;;5096825;28;20515;-84
2022/08/11 14:47:14;;;;;;;2.92;0.40;;;27.20;38.20;;;;;;5115572;28;20073;-84
2022/08/11 14:49:41;;;;;;;4.13;0.50;;;27.20;38.70;;;;;;5096754;28;20024;-84
2022/08/11 14:52:15;;;;;;;1.20;0.40;;;27.20;38.60;;;;;;5110918;27;20058;-84
2022/08/11 14:57:35;;;;;;;3.40;0.47;;;27.40;38.40;;;;;;5131638;27;20053;-83
2022/08/11 15:00:03;;;;;;;0.93;0.40;;;27.40;38.00;;;;;;5114819;28;20031;-84
2022/08/11 15:05:14;;;;;;;0.80;0.30;;;27.30;38.20;;;;;;5114718;28;20073;-84
2022/08/11 15:07:41;;;;;;;0.68;0.30;;;27.30;38.10;;;;;;5096822;28;20031;-83
2022/08/11 15:10:09;;;;;;;0.98;0.40;;;27.20;38.60;;;;;;5111405;27;20031;-84
2022/08/11 15:12:38;;;;;;;1.13;0.40;;;27.10;39.00;;;;;;5116167;27;20027;-84
2022/08/11 15:17:59;;;;;;;2.03;0.60;;;27.10;40.30;;;;;;5128073;27;20116;-84
2022/08/11 15:26:15;;;;;;;2.15;0.60;;;26.70;40.60;;;;;;5105313;28;20259;-82
2022/08/11 15:37:26;;;;;;;5.40;0.60;;;26.30;43.10;;;;;;5104545;28;20040;-83
2022/08/11 15:46:01;;;;;;;3.97;0.40;;;26.00;44.70;;;;;;5085065;28;20024;-83
2022/08/11 15:48:32;;;;;;;3.88;0.70;;;25.80;44.60;;;;;;5081041;28;20153;-80
2022/08/11 15:51:04;;;;;;;2.00;0.40;;;25.60;44.80;;;;;;5087045;28;20036;-82
2022/08/11 15:53:50;;;;;;;1.65;0.52;;;25.40;44.40;;;;;;5083344;28;20059;-82
2022/08/11 15:56:17;;;;;;;0.70;0.30;;;25.20;44.80;;;;;;5081356;28;20077;-81
2022/08/11 16:04:23;;;;;;;2.60;0.50;;;24.70;46.20;;;;;;5084138;28;20039;-82
2022/08/11 16:06:54;;;;;;;3.45;0.50;;;24.60;46.40;;;;;;5082805;28;20036;-82
2022/08/11 16:09:40;;;;;;;2.90;0.30;;;24.50;47.00;;;;;;5082659;28;20070;-83
2022/08/11 16:12:09;;;;;;;1.70;0.45;;;24.40;47.20;;;;;;5082707;28;20202;-82
2022/08/11 16:17:39;;;;;;;2.35;0.40;;;24.20;48.30;;;;;;5084725;28;20066;-83
2022/08/11 16:20:07;;;;;;;1.85;0.50;;;24.10;48.60;;;;;;5071895;28;20021;-83
2022/08/11 16:22:40;;;;;;;2.75;0.50;;;24.20;48.70;;;;;;5082016;28;20052;-83
2022/08/11 16:25:13;;;;;;;2.15;0.70;;;24.10;48.90;;;;;;5082074;28;20036;-82
2022/08/11 16:27:42;;;;;;;2.95;0.95;;;24.10;48.80;;;;;;5069623;28;20161;-82
2022/08/11 16:30:09;;;;;;;1.23;0.40;;;24.00;49.00;;;;;;5063457;28;20508;-82
2022/08/11 16:32:39;;;;;;;2.60;0.50;;;24.10;49.00;;;;;;5062228;28;20017;-83
2022/08/11 16:40:42;;;;;;;3.15;0.50;;;23.80;49.30;;;;;;5069864;28;20081;-82
2022/08/11 16:48:46;;;;;;;1.38;0.60;;;23.60;49.90;;;;;;5064982;28;20035;-82
2022/08/11 16:51:13;;;;;;;1.80;0.40;;;23.50;50.20;;;;;;5050933;28;20029;-83
2022/08/11 16:53:43;;;;;;;5.50;0.57;;;23.40;50.90;;;;;;5067420;28;20447;-82
2022/08/11 16:56:15;;;;;;;4.40;0.43;;;23.30;51.20;;;;;;5066341;28;20443;-83
2022/08/11 17:01:27;;;;;;;3.50;0.35;;;23.20;51.70;;;;;;5070242;28;20086;-82
2022/08/11 17:18:02;;;;;;;1.48;0.70;;;23.10;51.90;;;;;;5070266;28;20107;-82
2022/08/11 17:20:29;;;;;;;0.68;0.43;;;23.10;52.20;;;;;;5069108;28;20506;-82
2022/08/11 17:25:42;;;;;;;1.50;0.35;;;22.90;52.40;;;;;;5068726;28;20063;-83
2022/08/11 17:28:10;;;;;;;2.10;0.45;;;22.90;52.70;;;;;;5067791;28;20020;-83
2022/08/11 17:36:09;;;;;;;1.70;0.45;;;22.80;52.70;;;;;;5066495;28;20043;-83
2022/08/11 17:38:36;;;;;;;1.48;0.52;;;22.80;53.00;;;;;;5064536;28;20044;-83
2022/08/11 17:49:21;;;;;;;0.75;0.40;;;22.40;53.60;;;;;;5069061;28;20043;-83
2022/08/11 18:00:06;;;;;;;1.33;0.60;;;22.20;53.80;;;;;;5069179;28;20031;-83
2022/08/11 18:05:20;;;;;;;0.88;0.40;;;22.10;53.50;;;;;;5068981;28;20751;-83
